Time;durP1;ratioP1;P1;durP2;ratioP2;P2;SDS_P1;SDS_P2;PMS_P1;PMS_P2;Temp;Humidity;BMP_temperature;BMP_pressure;BME280_temperature;BME280_humidity;BME280_pressure;Samples;Min_cycle;Max_cycle;Signal;HPM_P1;HPM_P2
2023/10/29 00:01:27;;;;;;;855.00;377.73;;;10.30;99.90;;;;;;4880925;29;20059;-83
2023/10/29 00:04:09;;;;;;;852.27;376.07;;;10.30;99.90;;;;;;4861739;29;20050;-84
2023/10/29 00:14:42;;;;;;;841.60;377.57;;;10.40;99.90;;;;;;4898646;29;20301;-83
2023/10/29 00:18:18;;;;;;;;;;;;;;;;;;;;;
2023/10/29 00:21:40;;;;;;;840.57;475.53;;;10.40;99.90;;;;;;4950198;29;20316;-85
2023/10/29 00:24:33;;;;;;;837.80;373.27;;;10.70;99.90;;;;;;4962380;28;20778;-84
2023/10/29 00:27:51;;;;;;;842.90;375.33;;;10.50;99.90;;;;;;4977620;28;20380;-84
2023/10/29 00:42:21;;;;;;;;;;;;;;;;;;;;;
2023/10/29 00:45:52;;;;;;;;;;;;;;;;;;;;;
2023/10/29 00:49:24;;;;;;;;;;;;;;;;;;;;;
2023/10/29 00:52:59;;;;;;;;;;;;;;;;;;;;;
2023/10/29 00:56:19;;;;;;;;;;;;;;;;;;;;;
2023/10/29 00:59:45;;;;;;;868.13;425.83;;;10.70;99.90;;;;;;4953574;29;20411;-83
2023/10/29 01:10:42;;;;;;;;;;;;;;;;;;;;;
2023/10/29 01:14:08;;;;;;;;;;;;;;;;;;;;;
2023/10/29 01:17:29;;;;;;;841.13;431.10;;;11.00;99.90;;;;;;4991949;28;20409;-85
2023/10/29 01:21:05;;;;;;;;;;;;;;;;;;;;;
2023/10/29 01:24:40;;;;;;;;;;;;;;;;;;;;;
2023/10/29 01:28:45;;;;;;;867.93;368.00;;;10.80;99.90;;;;;;4916252;29;20296;-84
2023/10/29 01:50:50;;;;;;;;;;;;;;;;;;;;;
2023/10/29 01:54:04;;;;;;;828.73;367.03;;;11.20;99.90;;;;;;4897083;29;20056;-88
2023/10/29 01:57:21;;;;;;;837.83;367.77;;;11.10;99.90;;;;;;4896869;29;20948;-83
2023/10/29 02:00:44;;;;;;;865.47;360.40;;;11.10;99.90;;;;;;4912168;29;20300;-85
2023/10/29 02:04:09;;;;;;;865.07;353.60;;;11.10;99.90;;;;;;4933629;28;20374;-84
2023/10/29 02:11:05;;;;;;;871.10;354.73;;;11.20;99.90;;;;;;4973222;28;20397;-85
2023/10/29 02:14:32;;;;;;;;;;;;;;;;;;;;;
2023/10/29 02:17:57;;;;;;;;;;;;;;;;;;;;;
2023/10/29 02:21:33;;;;;;;864.97;352.63;;;11.40;99.90;;;;;;5011068;28;20280;-85
2023/10/29 02:24:53;;;;;;;827.00;364.07;;;11.40;99.90;;;;;;5019788;28;20291;-85
2023/10/29 02:28:05;;;;;;;834.87;471.37;;;11.40;99.90;;;;;;5069103;28;20333;-85
2023/10/29 02:35:08;;;;;;;827.40;472.13;;;11.40;99.90;;;;;;5041865;28;20310;-85
2023/10/29 02:38:40;;;;;;;845.63;379.93;;;11.10;99.90;;;;;;5011846;28;20280;-86
2023/10/29 02:42:24;;;;;;;;;;;;;;;;;;;;;
2023/10/29 02:45:11;;;;;;;824.57;471.13;;;11.60;99.90;;;;;;4913495;29;20079;-84
2023/10/29 02:48:24;;;;;;;833.43;476.67;;;11.60;99.90;;;;;;4899184;29;20310;-84
2023/10/29 02:52:04;;;;;;;;;;;;;;;;;;;;;
2023/10/29 03:14:15;;;;;;;862.23;438.07;;;11.70;99.90;;;;;;4993113;28;20845;-83
2023/10/29 03:17:31;;;;;;;825.13;473.67;;;11.70;99.90;;;;;;4914595;29;20296;-83
2023/10/29 03:20:58;;;;;;;858.33;453.47;;;11.70;99.90;;;;;;4950144;29;20346;-83
2023/10/29 03:24:23;;;;;;;;;;;;;;;;;;;;;
2023/10/29 03:27:51;;;;;;;851.17;451.73;;;11.70;99.90;;;;;;4952658;29;20310;-83
2023/10/29 03:31:23;;;;;;;824.67;473.27;;;11.70;99.90;;;;;;4931661;29;20804;-84
2023/10/29 03:38:19;;;;;;;833.00;373.10;;;11.70;99.90;;;;;;4894512;29;20289;-82
2023/10/29 03:41:34;;;;;;;872.17;362.70;;;11.70;99.90;;;;;;4893053;29;20370;-83
2023/10/29 03:45:15;;;;;;;857.33;358.47;;;11.70;99.90;;;;;;4896461;29;20301;-84
2023/10/29 03:48:59;;;;;;;869.03;442.50;;;11.90;99.90;;;;;;4868733;29;20325;-83
2023/10/29 04:03:13;;;;;;;854.50;435.70;;;11.60;99.90;;;;;;4895492;29;20293;-83
2023/10/29 04:06:25;;;;;;;834.65;371.75;;;11.60;99.90;;;;;;4923103;29;20291;-83
2023/10/29 04:09:58;;;;;;;847.97;441.27;;;11.60;99.90;;;;;;4933874;29;20401;-83
2023/10/29 04:13:27;;;;;;;871.10;364.67;;;11.60;99.90;;;;;;4918632;29;20815;-84
2023/10/29 04:17:13;;;;;;;;;;;;;;;;;;;;;
2023/10/29 04:23:55;;;;;;;840.73;446.77;;;11.70;99.90;;;;;;4879539;29;20294;-83
2023/10/29 04:27:30;;;;;;;847.57;441.87;;;11.80;99.90;;;;;;4895765;29;20289;-83
2023/10/29 04:30:49;;;;;;;829.53;469.63;;;11.80;99.90;;;;;;4898411;29;20575;-83
2023/10/29 04:34:31;;;;;;;863.40;366.10;;;11.80;99.90;;;;;;4914359;29;20400;-84
2023/10/29 04:37:54;;;;;;;;;;;;;;;;;;;;;
2023/10/29 04:40:53;;;;;;;830.53;469.83;;;11.90;99.90;;;;;;4860311;29;20290;-84
2023/10/29 04:44:07;;;;;;;843.87;449.40;;;12.40;99.90;;;;;;4873050;29;20822;-83
2023/10/29 04:47:30;;;;;;;;;;;;;;;;;;;;;
2023/10/29 04:51:10;;;;;;;;;;;;;;;;;;;;;
2023/10/29 04:54:31;;;;;;;853.77;440.57;;;12.70;99.90;;;;;;4840116;29;20307;-83
2023/10/29 04:57:47;;;;;;;868.63;369.83;;;12.40;99.90;;;;;;4910441;29;20343;-84
2023/10/29 05:00:42;;;;;;;868.97;363.83;;;12.40;99.90;;;;;;4923470;28;20282;-85
2023/10/29 05:22:30;;;;;;;;;;;;;;;;;;;;;
2023/10/29 05:25:45;;;;;;;862.50;367.77;;;11.80;99.90;;;;;;5071020;28;20287;-83
2023/10/29 05:29:08;;;;;;;854.60;450.70;;;11.80;99.90;;;;;;5054815;28;20294;-84
2023/10/29 05:32:36;;;;;;;;;;;;;;;;;;;;;
2023/10/29 05:36:12;;;;;;;834.60;471.00;;;11.60;99.90;;;;;;5074367;28;20311;-86
2023/10/29 05:39:49;;;;;;;863.27;376.23;;;11.60;99.90;;;;;;5073037;28;20330;-85
2023/10/29 05:43:25;;;;;;;865.77;442.60;;;11.40;99.90;;;;;;5074017;28;20060;-84
2023/10/29 05:46:54;;;;;;;860.23;370.97;;;11.40;99.90;;;;;;5070300;28;20275;-83
2023/10/29 05:50:48;;;;;;;;;;;;;;;;;;;;;
2023/10/29 05:54:09;;;;;;;842.87;446.93;;;11.40;99.90;;;;;;5012147;28;20560;-89
2023/10/29 05:57:27;;;;;;;861.40;364.10;;;11.40;99.90;;;;;;5010984;28;20638;-86
2023/10/29 06:00:07;;;;;;;866.20;360.83;;;11.40;99.90;;;;;;4936142;29;20306;-84
2023/10/29 06:07:03;;;;;;;;;;;;;;;;;;;;;
2023/10/29 06:10:29;;;;;;;866.50;428.23;;;11.50;99.90;;;;;;4878628;29;20297;-83
2023/10/29 06:14:01;;;;;;;884.63;352.27;;;11.50;99.90;;;;;;4875012;29;20364;-86
2023/10/29 06:17:22;;;;;;;877.07;353.83;;;11.50;99.90;;;;;;4876581;29;20290;-84
2023/10/29 06:20:50;;;;;;;871.43;353.20;;;11.60;99.90;;;;;;4878200;29;20556;-85
2023/10/29 06:24:12;;;;;;;857.70;424.43;;;11.70;99.90;;;;;;4844735;29;20295;-85
2023/10/29 06:27:41;;;;;;;882.03;400.00;;;12.10;99.90;;;;;;4948497;28;20390;-83
2023/10/29 06:31:20;;;;;;;885.23;409.17;;;11.80;99.90;;;;;;4975474;28;20798;-87
2023/10/29 06:35:01;;;;;;;882.80;398.90;;;11.80;99.90;;;;;;4974553;28;20074;-84
2023/10/29 06:38:21;;;;;;;;;;;;;;;;;;;;;
2023/10/29 06:41:09;;;;;;;;;;;;;;;;;;;;;
2023/10/29 06:44:10;;;;;;;;;;;;;;;;;;;;;
2023/10/29 06:47:07;;;;;;;885.50;349.83;;;11.50;99.90;;;;;;4990576;28;20657;-85
2023/10/29 06:53:53;;;;;;;895.87;341.07;;;11.50;99.90;;;;;;5010022;28;20305;-83
2023/10/29 06:56:53;;;;;;;873.50;348.60;;;11.60;99.90;;;;;;4991378;28;20300;-85
2023/10/29 07:00:19;;;;;;;876.13;353.93;;;11.60;99.90;;;;;;4993781;28;20285;-87
2023/10/29 07:03:37;;;;;;;876.23;351.70;;;11.70;99.90;;;;;;4979665;28;20291;-86
2023/10/29 07:07:02;;;;;;;857.83;353.63;;;11.80;99.90;;;;;;5007679;28;20289;-85
2023/10/29 07:10:05;;;;;;;862.27;357.03;;;11.80;99.90;;;;;;5055660;28;20759;-87
2023/10/29 07:20:46;;;;;;;;;;;;;;;;;;;;;
2023/10/29 07:23:54;;;;;;;870.43;399.37;;;12.10;99.90;;;;;;5090544;28;20794;-86
2023/10/29 07:27:09;;;;;;;954.63;351.00;;;12.10;99.90;;;;;;5093073;28;20350;-84
2023/10/29 07:29:59;;;;;;;965.97;357.03;;;11.70;99.90;;;;;;5088529;28;20287;-84
2023/10/29 07:32:41;;;;;;;972.25;358.92;;;12.10;99.90;;;;;;5087928;28;20642;-86
2023/10/29 07:35:50;;;;;;;972.83;359.77;;;12.20;99.90;;;;;;5076470;28;20123;-87
2023/10/29 07:42:17;;;;;;;966.43;355.57;;;12.30;99.90;;;;;;5095883;28;20315;-90
2023/10/29 07:45:00;;;;;;;935.23;367.50;;;12.30;99.90;;;;;;5072287;28;20372;-90
2023/10/29 07:56:11;;;;;;;968.37;359.60;;;12.40;99.90;;;;;;5079317;28;20295;-86
2023/10/29 07:58:46;;;;;;;967.47;359.83;;;12.40;99.90;;;;;;5076041;28;20291;-88
2023/10/29 08:01:15;;;;;;;958.70;361.30;;;12.40;99.90;;;;;;5040365;28;20299;-85
2023/10/29 08:03:55;;;;;;;955.33;353.17;;;12.40;99.90;;;;;;5056685;28;20045;-85
2023/10/29 08:06:46;;;;;;;955.97;351.67;;;12.50;99.90;;;;;;5063666;28;20625;-87
2023/10/29 08:10:06;;;;;;;;;;;;;;;;;;;;;
2023/10/29 08:12:54;;;;;;;957.90;350.90;;;12.50;99.90;;;;;;5058153;28;20094;-86
2023/10/29 08:15:43;;;;;;;959.60;353.83;;;12.60;99.90;;;;;;5063650;28;20304;-84
2023/10/29 08:18:27;;;;;;;945.40;342.93;;;12.60;99.90;;;;;;5057679;28;20298;-85
2023/10/29 08:21:43;;;;;;;929.27;331.73;;;12.90;99.90;;;;;;5042245;28;20283;-86
2023/10/29 08:25:00;;;;;;;;;;;;;;;;;;;;;
2023/10/29 08:28:13;;;;;;;935.43;335.83;;;12.70;99.90;;;;;;5055450;28;20358;-85
2023/10/29 08:31:35;;;;;;;;;;;;;;;;;;;;;
2023/10/29 08:34:28;;;;;;;894.00;307.17;;;12.50;99.90;;;;;;5037443;28;20816;-87
2023/10/29 08:38:07;;;;;;;897.77;307.90;;;13.00;99.90;;;;;;5020034;28;20292;-85
2023/10/29 08:48:47;;;;;;;921.70;325.83;;;13.20;99.90;;;;;;5074881;28;20266;-86
2023/10/29 08:52:02;;;;;;;;;;;;;;;;;;;;;
2023/10/29 08:55:22;;;;;;;936.60;336.20;;;13.30;99.90;;;;;;5074239;28;20306;-84
2023/10/29 08:58:46;;;;;;;948.37;344.70;;;13.30;99.90;;;;;;5039222;28;20294;-85
2023/10/29 09:02:09;;;;;;;965.83;357.43;;;13.40;99.90;;;;;;5021480;28;20303;-84
2023/10/29 09:05:19;;;;;;;953.63;350.13;;;13.40;99.90;;;;;;5051911;28;20695;-84
2023/10/29 09:26:42;;;;;;;874.67;388.57;;;13.50;99.90;;;;;;5053067;28;20494;-92
2023/10/29 09:29:46;;;;;;;874.42;395.60;;;13.40;99.90;;;;;;5017371;28;20590;-91
2023/10/29 09:32:46;;;;;;;865.57;486.60;;;13.40;99.90;;;;;;5041924;28;20469;-91
2023/10/29 09:35:51;;;;;;;881.80;409.07;;;13.40;99.90;;;;;;5053695;28;20299;-92
2023/10/29 09:38:52;;;;;;;887.40;495.67;;;13.50;99.90;;;;;;5053510;28;20687;-91
2023/10/29 09:42:18;;;;;;;;;;;;;;;;;;;;;
2023/10/29 09:45:58;;;;;;;;;;;;;;;;;;;;;
2023/10/29 10:09:02;;;;;;;894.78;293.65;;;14.10;99.90;;;;;;5043003;28;20302;-90
2023/10/29 10:11:30;;;;;;;916.77;308.77;;;14.30;99.90;;;;;;5056319;28;20056;-92
2023/10/29 10:13:56;;;;;;;909.30;304.73;;;14.40;99.90;;;;;;5075106;28;20302;-85
2023/10/29 10:16:29;;;;;;;898.63;294.50;;;14.40;99.90;;;;;;5081042;28;20305;-92
2023/10/29 10:19:00;;;;;;;897.23;291.53;;;14.30;99.90;;;;;;5084005;28;20244;-90
2023/10/29 10:21:51;;;;;;;907.90;299.80;;;14.30;99.90;;;;;;5087507;28;20648;-90
2023/10/29 10:24:39;;;;;;;895.27;289.10;;;14.40;99.90;;;;;;5077253;28;20373;-91
2023/10/29 10:28:00;;;;;;;900.77;293.27;;;14.40;99.90;;;;;;5076761;28;20343;-93
2023/10/29 10:30:50;;;;;;;897.40;290.63;;;14.40;99.90;;;;;;5076547;28;20286;-88
2023/10/29 10:33:25;;;;;;;907.20;296.03;;;14.50;99.90;;;;;;5074884;28;20306;-91
2023/10/29 10:35:55;;;;;;;908.47;297.33;;;14.50;99.90;;;;;;5093696;28;20616;-89
2023/10/29 10:38:50;;;;;;;911.97;300.37;;;14.50;99.90;;;;;;5074998;28;20287;-87
2023/10/29 10:41:17;;;;;;;906.77;296.00;;;14.30;99.90;;;;;;5093751;28;20281;-89
2023/10/29 10:44:01;;;;;;;908.40;295.07;;;14.40;99.90;;;;;;5094209;28;20353;-89
2023/10/29 10:46:38;;;;;;;902.40;290.05;;;14.40;99.90;;;;;;5076349;28;20274;-90
2023/10/29 10:49:11;;;;;;;909.97;295.63;;;14.60;99.90;;;;;;5093900;28;20048;-91
2023/10/29 10:51:48;;;;;;;908.77;293.57;;;14.60;99.90;;;;;;5093886;28;20767;-89
2023/10/29 10:54:19;;;;;;;908.67;295.70;;;14.60;99.90;;;;;;5062611;28;20334;-90
2023/10/29 10:56:58;;;;;;;909.30;293.63;;;14.70;99.90;;;;;;5055813;28;20377;-94
2023/10/29 10:59:38;;;;;;;910.47;293.83;;;14.70;99.90;;;;;;5048808;28;20320;-91
2023/10/29 11:02:22;;;;;;;908.27;293.43;;;14.70;99.90;;;;;;5075721;28;20328;-87
2023/10/29 11:04:57;;;;;;;903.60;290.93;;;14.70;99.90;;;;;;5083674;28;20311;-90
2023/10/29 11:07:31;;;;;;;893.53;282.13;;;14.70;99.90;;;;;;5088104;28;20290;-88
2023/10/29 11:10:17;;;;;;;901.87;285.67;;;14.70;99.90;;;;;;5094414;28;20048;-90
2023/10/29 11:12:46;;;;;;;894.77;284.83;;;14.80;99.90;;;;;;5038797;28;20299;-88
2023/10/29 11:15:26;;;;;;;901.80;289.20;;;14.80;99.90;;;;;;5084638;28;20291;-88
2023/10/29 11:18:01;;;;;;;900.90;286.10;;;15.00;99.90;;;;;;5074319;28;20279;-91
2023/10/29 11:21:06;;;;;;;886.90;275.40;;;14.90;99.90;;;;;;5065454;28;20306;-89
2023/10/29 11:23:43;;;;;;;891.83;277.47;;;14.90;99.90;;;;;;5076773;28;20290;-91
2023/10/29 11:26:28;;;;;;;891.23;278.10;;;14.90;99.90;;;;;;5087071;28;20349;-89
2023/10/29 11:29:09;;;;;;;891.30;276.20;;;14.90;99.90;;;;;;5081390;28;20523;-88
2023/10/29 11:31:36;;;;;;;887.27;274.03;;;14.90;99.90;;;;;;5077368;28;20275;-86
2023/10/29 11:34:37;;;;;;;894.40;280.00;;;14.80;99.90;;;;;;5059002;28;20302;-88
2023/10/29 11:37:40;;;;;;;888.93;275.23;;;14.80;99.90;;;;;;5059405;28;20302;-88
2023/10/29 11:40:28;;;;;;;899.67;283.13;;;14.90;99.90;;;;;;5057027;28;20268;-87
2023/10/29 11:43:13;;;;;;;894.95;282.45;;;14.80;99.90;;;;;;5039054;28;20287;-85
2023/10/29 11:45:53;;;;;;;897.30;280.80;;;14.90;99.90;;;;;;5056524;28;20381;-86
2023/10/29 11:48:25;;;;;;;897.43;281.33;;;14.80;99.90;;;;;;5055094;28;20295;-82
2023/10/29 12:06:09;;;;;;;891.47;275.57;;;14.70;99.90;;;;;;5097750;28;20231;-82
2023/10/29 12:09:28;;;;;;;890.27;276.97;;;14.60;99.90;;;;;;5095779;28;20648;-84
2023/10/29 12:12:35;;;;;;;891.17;278.27;;;14.70;99.90;;;;;;5075929;28;20365;-83
2023/10/29 12:15:40;;;;;;;894.37;282.07;;;14.70;99.90;;;;;;5073186;28;20295;-82
2023/10/29 12:18:39;;;;;;;889.03;277.60;;;14.60;99.90;;;;;;5053915;28;20287;-83
2023/10/29 12:22:12;;;;;;;880.60;272.73;;;14.60;99.90;;;;;;5069173;28;20767;-83
2023/10/29 12:25:24;;;;;;;879.53;270.80;;;14.50;99.90;;;;;;5094405;28;20785;-84
2023/10/29 12:32:48;;;;;;;;;;;;;;;;;;;;;
2023/10/29 12:36:09;;;;;;;854.77;252.80;;;14.50;99.90;;;;;;5049490;28;20784;-82
2023/10/29 12:39:13;;;;;;;;;;;;;;;;;;;;;
2023/10/29 12:42:23;;;;;;;823.47;229.80;;;14.40;99.90;;;;;;5051040;28;20326;-82
2023/10/29 12:45:55;;;;;;;;;;;;;;;;;;;;;
2023/10/29 12:48:58;;;;;;;824.53;233.00;;;14.50;99.90;;;;;;5028337;28;20316;-83
2023/10/29 12:52:05;;;;;;;;;;;;;;;;;;;;;
2023/10/29 12:55:22;;;;;;;820.07;229.87;;;14.40;99.90;;;;;;5018980;28;20388;-83
2023/10/29 12:58:20;;;;;;;824.03;230.70;;;14.40;99.90;;;;;;5049214;28;20284;-82
2023/10/29 13:01:22;;;;;;;831.23;233.03;;;14.40;99.90;;;;;;5015775;28;20307;-83
2023/10/29 13:04:45;;;;;;;;;;;;;;;;;;;;;
2023/10/29 13:07:58;;;;;;;;;;;;;;;;;;;;;
2023/10/29 13:10:55;;;;;;;833.37;236.17;;;14.30;99.90;;;;;;5073121;28;20617;-82
2023/10/29 13:14:16;;;;;;;839.30;240.73;;;14.20;99.90;;;;;;5039079;28;20811;-85
2023/10/29 13:16:55;;;;;;;;;;;14.30;99.90;;;;;;5050072;28;20645;-85
2023/10/29 13:19:51;;;;;;;843.13;246.37;;;14.30;99.90;;;;;;5056681;28;19920;-84
2023/10/29 13:23:08;;;;;;;838.20;239.40;;;14.30;99.90;;;;;;5074634;28;20621;-81
2023/10/29 13:26:20;;;;;;;826.10;236.77;;;14.20;99.90;;;;;;5052591;28;20283;-82
2023/10/29 13:29:47;;;;;;;816.90;228.90;;;14.30;99.90;;;;;;5051609;28;20283;-82
2023/10/29 13:32:50;;;;;;;816.43;229.97;;;14.20;99.90;;;;;;5051647;28;20288;-84
2023/10/29 13:47:03;;;;;;;829.93;236.73;;;14.20;99.90;;;;;;5050726;28;20663;-83
2023/10/29 13:49:43;;;;;;;826.93;234.00;;;14.20;99.90;;;;;;5022102;28;20291;-83
2023/10/29 13:52:38;;;;;;;823.37;232.13;;;14.10;99.90;;;;;;5059833;28;20311;-83
2023/10/29 13:55:34;;;;;;;817.90;228.97;;;14.10;99.90;;;;;;5050333;28;20327;-84
2023/10/29 13:58:43;;;;;;;824.57;233.37;;;14.20;99.90;;;;;;5071714;28;20671;-83
2023/10/29 14:01:46;;;;;;;819.67;231.80;;;14.20;99.90;;;;;;5070198;28;20287;-83
2023/10/29 14:12:53;;;;;;;;;;;;;;;;;;;;;
2023/10/29 14:15:57;;;;;;;;;;;14.20;99.90;;;;;;5051934;28;20767;-85
2023/10/29 14:19:24;;;;;;;836.63;241.30;;;14.20;99.90;;;;;;5051447;28;19966;-85
2023/10/29 14:22:24;;;;;;;830.70;236.03;;;14.10;99.90;;;;;;5031466;28;20454;-85
2023/10/29 14:25:39;;;;;;;;;;;;;;;;;;;;;
2023/10/29 14:28:32;;;;;;;836.27;242.27;;;14.00;99.90;;;;;;5031317;28;20294;-86
2023/10/29 14:39:11;;;;;;;;;;;;;;;;;;;;;
2023/10/29 14:42:31;;;;;;;837.17;242.10;;;13.60;99.90;;;;;;5009454;28;20281;-85
2023/10/29 14:45:41;;;;;;;838.07;243.63;;;13.60;99.90;;;;;;4995841;28;20587;-86
2023/10/29 14:48:40;;;;;;;837.30;243.00;;;13.60;99.90;;;;;;5027297;28;20399;-86
2023/10/29 14:51:59;;;;;;;;;;;;;;;;;;;;;
2023/10/29 14:55:11;;;;;;;841.53;246.63;;;13.50;99.90;;;;;;4990115;28;20432;-86
2023/10/29 15:12:42;;;;;;;855.03;260.23;;;13.30;99.90;;;;;;5025262;28;20807;-84
2023/10/29 15:15:43;;;;;;;853.83;256.23;;;13.20;99.90;;;;;;4997498;28;20317;-83
2023/10/29 15:18:41;;;;;;;853.03;258.50;;;13.10;99.90;;;;;;5009231;28;20285;-82
2023/10/29 15:21:55;;;;;;;;;;;;;;;;;;;;;
2023/10/29 15:24:59;;;;;;;848.70;253.98;;;13.10;99.90;;;;;;4991582;28;20281;-85
2023/10/29 15:28:07;;;;;;;855.17;260.40;;;13.00;99.90;;;;;;5012256;28;20509;-84
2023/10/29 15:31:01;;;;;;;850.93;254.90;;;13.00;99.90;;;;;;5035946;28;20317;-84
2023/10/29 15:38:06;;;;;;;858.67;261.83;;;12.90;99.90;;;;;;5073402;28;20274;-85
2023/10/29 15:41:08;;;;;;;849.23;257.13;;;12.80;99.90;;;;;;5011697;28;20299;-85
2023/10/29 15:44:17;;;;;;;852.40;260.33;;;12.80;99.90;;;;;;4992167;28;20344;-84
2023/10/29 15:47:25;;;;;;;;;;;;;;;;;;;;;
2023/10/29 15:50:24;;;;;;;;;;;;;;;;;;;;;
2023/10/29 15:53:29;;;;;;;855.70;260.90;;;12.60;99.90;;;;;;4937292;28;20751;-85
2023/10/29 15:56:36;;;;;;;850.43;256.60;;;12.60;99.90;;;;;;4935059;29;20290;-85
2023/10/29 16:02:57;;;;;;;864.43;269.67;;;12.60;99.90;;;;;;4952824;28;19942;-85
2023/10/29 16:05:57;;;;;;;834.50;243.88;;;12.50;99.90;;;;;;4935280;28;20387;-85
2023/10/29 16:09:10;;;;;;;849.27;260.80;;;12.50;99.90;;;;;;4949990;28;20519;-85
2023/10/29 16:12:25;;;;;;;848.83;254.73;;;12.50;99.90;;;;;;4959574;28;20346;-86
2023/10/29 16:15:28;;;;;;;851.00;259.33;;;12.50;99.90;;;;;;5003417;28;20308;-85
2023/10/29 16:18:36;;;;;;;857.57;264.47;;;12.40;99.90;;;;;;5038751;28;20652;-84
2023/10/29 16:21:49;;;;;;;;;;;;;;;;;;;;;
2023/10/29 16:25:17;;;;;;;859.85;266.88;;;11.90;99.90;;;;;;4974452;28;20287;-86
2023/10/29 16:28:25;;;;;;;882.47;280.97;;;12.20;99.90;;;;;;4967165;28;20050;-84
2023/10/29 16:31:27;;;;;;;870.73;274.07;;;12.30;99.90;;;;;;5011303;28;20342;-85
2023/10/29 16:34:59;;;;;;;;;;;;;;;;;;;;;
2023/10/29 16:38:36;;;;;;;;;;;;;;;;;;;;;
2023/10/29 16:42:04;;;;;;;877.10;278.97;;;12.10;99.90;;;;;;4917222;29;20284;-85
2023/10/29 16:59:59;;;;;;;;;;;;;;;;;;;;;
2023/10/29 17:03:18;;;;;;;857.03;264.98;;;12.00;99.90;;;;;;4954468;28;20286;-84
2023/10/29 17:06:31;;;;;;;879.57;281.57;;;11.90;99.90;;;;;;4949150;29;20148;-87
2023/10/29 17:09:58;;;;;;;873.17;276.63;;;11.90;99.90;;;;;;4956394;28;20783;-87
2023/10/29 17:13:11;;;;;;;887.40;287.33;;;11.90;99.90;;;;;;4976229;28;20278;-85
2023/10/29 17:16:15;;;;;;;873.37;278.07;;;11.90;99.90;;;;;;4971491;28;20294;-86
2023/10/29 17:30:13;;;;;;;856.37;263.00;;;11.80;99.90;;;;;;4993166;28;20276;-89
2023/10/29 17:33:26;;;;;;;851.20;261.77;;;11.80;99.90;;;;;;4977293;28;20360;-87
2023/10/29 17:36:45;;;;;;;;;;;;;;;;;;;;;
2023/10/29 17:40:07;;;;;;;857.33;266.50;;;11.70;99.90;;;;;;4940107;28;20267;-84
2023/10/29 17:47:05;;;;;;;869.63;274.80;;;11.70;99.90;;;;;;4935125;29;20697;-85
2023/10/29 17:58:11;;;;;;;;;;;;;;;;;;;;;
2023/10/29 18:01:39;;;;;;;866.30;272.77;;;11.60;99.90;;;;;;4900204;29;20380;-84
2023/10/29 18:04:58;;;;;;;867.53;272.97;;;11.60;99.90;;;;;;4915710;29;20292;-84
2023/10/29 18:07:57;;;;;;;856.07;263.93;;;11.80;99.90;;;;;;4914009;29;20363;-84
2023/10/29 18:11:18;;;;;;;852.73;263.23;;;11.70;99.90;;;;;;4899442;29;20390;-84
2023/10/29 18:14:33;;;;;;;861.23;270.37;;;11.70;99.90;;;;;;4915068;29;20303;-84
2023/10/29 18:17:31;;;;;;;877.37;281.73;;;11.80;99.90;;;;;;4914790;29;20294;-84
2023/10/29 18:27:58;;;;;;;875.70;281.40;;;11.70;99.90;;;;;;5011729;28;20299;-85
2023/10/29 18:31:10;;;;;;;;;;;;;;;;;;;;;
2023/10/29 18:34:38;;;;;;;859.87;266.77;;;11.70;99.90;;;;;;5030894;28;20364;-85
2023/10/29 18:38:07;;;;;;;862.17;269.77;;;11.70;99.90;;;;;;5017506;28;20287;-84
2023/10/29 18:41:29;;;;;;;854.17;264.47;;;11.80;99.90;;;;;;5019177;28;20323;-84
2023/10/29 18:45:20;;;;;;;;;;;;;;;;;;;;;
2023/10/29 18:52:22;;;;;;;;;;;;;;;;;;;;;
2023/10/29 18:59:37;;;;;;;;;;;;;;;;;;;;;
2023/10/29 19:03:08;;;;;;;843.90;254.87;;;12.00;99.90;;;;;;4933596;29;20043;-89
2023/10/29 19:06:24;;;;;;;;;;;11.90;99.90;;;;;;4914334;29;20377;-88
2023/10/29 19:09:31;;;;;;;846.10;258.20;;;11.80;99.90;;;;;;4933745;29;19929;-85
2023/10/29 19:17:08;;;;;;;845.33;258.33;;;11.80;99.90;;;;;;4930524;29;21088;-86
2023/10/29 19:20:37;;;;;;;850.97;260.97;;;11.70;99.90;;;;;;4927887;29;20380;-86
2023/10/29 19:24:03;;;;;;;841.37;255.53;;;11.60;99.90;;;;;;4933673;29;20284;-86
2023/10/29 19:27:22;;;;;;;848.37;260.17;;;11.60;99.90;;;;;;4932973;29;20286;-85
2023/10/29 19:30:54;;;;;;;;;;;;;;;;;;;;;
2023/10/29 19:34:25;;;;;;;838.00;255.63;;;11.40;99.90;;;;;;4956996;28;20726;-86
2023/10/29 19:38:05;;;;;;;833.70;250.67;;;11.40;99.90;;;;;;4972026;28;20334;-85
2023/10/29 19:41:46;;;;;;;827.00;246.93;;;11.30;99.90;;;;;;5011550;28;20320;-85
2023/10/29 19:45:10;;;;;;;829.13;248.43;;;11.20;99.90;;;;;;5017608;28;20293;-84
2023/10/29 19:49:02;;;;;;;858.13;267.73;;;11.10;99.90;;;;;;4974819;28;20770;-88
2023/10/29 19:52:20;;;;;;;854.83;267.13;;;11.10;99.90;;;;;;4936112;29;20318;-85
2023/10/29 19:56:01;;;;;;;829.07;248.90;;;11.20;99.90;;;;;;4952071;29;20353;-84
2023/10/29 20:03:14;;;;;;;;;;;;;;;;;;;;;
2023/10/29 20:06:30;;;;;;;816.57;238.80;;;10.90;99.90;;;;;;4895291;29;20372;-84
2023/10/29 20:09:45;;;;;;;;;;;;;;;;;;;;;
2023/10/29 20:13:16;;;;;;;804.90;231.60;;;10.80;99.90;;;;;;4880104;29;20278;-84
2023/10/29 20:16:49;;;;;;;;;;;;;;;;;;;;;
2023/10/29 20:19:32;;;;;;;782.60;215.40;;;10.80;99.90;;;;;;4858051;29;20318;-84
2023/10/29 20:22:05;;;;;;;761.23;209.67;;;10.70;99.90;;;;;;4845950;29;20836;-84
2023/10/29 20:24:37;;;;;;;760.57;209.47;;;10.70;99.90;;;;;;4885513;29;20324;-84
2023/10/29 20:27:09;;;;;;;781.07;219.27;;;10.70;99.90;;;;;;4925742;29;20311;-85
2023/10/29 20:29:46;;;;;;;746.97;207.27;;;10.70;99.90;;;;;;4963069;28;20342;-82
2023/10/29 20:32:18;;;;;;;773.23;217.03;;;10.70;99.90;;;;;;4953833;28;20426;-83
2023/10/29 20:34:52;;;;;;;763.10;210.50;;;10.70;99.90;;;;;;4972455;28;20352;-85
2023/10/29 20:37:25;;;;;;;754.00;208.70;;;10.70;99.90;;;;;;4986201;28;20305;-84
2023/10/29 20:40:16;;;;;;;753.77;208.83;;;10.70;99.90;;;;;;4997088;28;20251;-84
2023/10/29 20:43:10;;;;;;;765.47;213.30;;;11.00;99.90;;;;;;5028253;28;20327;-85
2023/10/29 20:45:53;;;;;;;753.57;210.00;;;11.10;99.90;;;;;;5014082;28;20290;-86
2023/10/29 20:48:22;;;;;;;745.13;206.07;;;10.70;99.90;;;;;;5068539;28;20303;-87
2023/10/29 20:50:55;;;;;;;733.10;203.07;;;10.80;99.90;;;;;;5053118;28;20283;-87
2023/10/29 20:53:22;;;;;;;728.60;202.70;;;10.90;99.90;;;;;;5073483;28;20286;-88
2023/10/29 20:55:49;;;;;;;723.97;204.63;;;10.90;99.90;;;;;;5068508;28;20616;-83
2023/10/29 20:58:24;;;;;;;719.87;201.10;;;10.90;99.90;;;;;;5053248;28;20294;-86
2023/10/29 21:00:54;;;;;;;711.45;198.18;;;11.00;99.90;;;;;;5074996;28;20294;-89
2023/10/29 21:03:27;;;;;;;722.87;203.23;;;11.00;99.90;;;;;;5075015;28;20037;-89
2023/10/29 21:05:59;;;;;;;710.00;202.83;;;10.90;99.90;;;;;;5075333;28;20287;-87
2023/10/29 21:08:29;;;;;;;700.77;200.53;;;10.90;99.90;;;;;;5073661;28;20297;-92
2023/10/29 21:11:23;;;;;;;698.90;199.47;;;10.90;99.90;;;;;;5045522;28;20370;-88
2023/10/29 21:14:34;;;;;;;711.60;200.80;;;10.90;99.90;;;;;;4993973;28;20301;-87
2023/10/29 21:17:27;;;;;;;708.17;202.32;;;10.90;99.90;;;;;;4979281;28;20046;-88
2023/10/29 21:24:35;;;;;;;737.63;204.47;;;10.90;99.90;;;;;;5013723;28;20323;-87
2023/10/29 21:27:18;;;;;;;727.30;203.83;;;10.80;99.90;;;;;;5013287;28;20339;-90
2023/10/29 21:30:00;;;;;;;708.27;200.27;;;10.80;99.90;;;;;;4995533;28;20331;-88
2023/10/29 21:32:35;;;;;;;684.67;198.70;;;10.80;99.90;;;;;;5003891;28;20296;-87
2023/10/29 21:35:26;;;;;;;689.93;198.30;;;10.80;99.90;;;;;;5011945;28;20033;-90
2023/10/29 21:38:18;;;;;;;690.20;199.40;;;10.80;99.90;;;;;;4996693;28;20323;-87
2023/10/29 21:41:04;;;;;;;687.53;215.27;;;10.70;99.90;;;;;;4991274;28;20324;-88
2023/10/29 21:43:45;;;;;;;677.73;198.40;;;10.70;99.90;;;;;;4986826;28;20390;-86
2023/10/29 21:46:26;;;;;;;657.65;195.02;;;10.70;99.90;;;;;;4999955;28;20291;-84
2023/10/29 21:49:00;;;;;;;671.63;198.70;;;10.90;99.90;;;;;;4996838;28;20137;-88
2023/10/29 21:51:56;;;;;;;673.17;199.23;;;10.80;99.90;;;;;;5076597;28;20282;-85
2023/10/29 21:54:33;;;;;;;669.53;199.73;;;11.00;99.90;;;;;;5082968;28;20306;-90
2023/10/29 21:57:08;;;;;;;641.17;196.07;;;10.80;99.90;;;;;;5094162;28;20821;-89
2023/10/29 21:59:42;;;;;;;646.00;197.30;;;10.80;99.90;;;;;;5092173;28;20303;-88
2023/10/29 22:02:17;;;;;;;661.47;195.73;;;10.80;99.90;;;;;;5070328;28;20304;-85
2023/10/29 22:04:53;;;;;;;663.70;200.70;;;10.70;99.90;;;;;;5066508;28;20340;-85
2023/10/29 22:07:48;;;;;;;656.93;197.23;;;10.80;99.90;;;;;;5070537;28;20290;-87
2023/10/29 22:10:59;;;;;;;671.10;198.17;;;10.80;99.90;;;;;;5092577;28;20366;-85